Time;durP1;ratioP1;P1;durP2;ratioP2;P2;SDS_P1;SDS_P2;PMS_P1;PMS_P2;Temp;Humidity;BMP_temperature;BMP_pressure;BME280_temperature;BME280_humidity;BME280_pressure;Samples;Min_cycle;Max_cycle;Signal;HPM_P1;HPM_P2
2022/01/02 00:00:22;;;;;;;7.53;4.50;;;10.60;99.90;;;;;;4993021;28;20477;-77
2022/01/02 00:02:57;;;;;;;4.23;3.27;;;10.60;99.90;;;;;;4992260;28;21296;-78
2022/01/02 00:05:23;;;;;;;6.77;4.33;;;10.50;99.90;;;;;;4995884;28;20463;-79
2022/01/02 00:08:05;;;;;;;6.67;3.80;;;10.50;99.90;;;;;;4990446;28;20431;-78
2022/01/02 00:10:50;;;;;;;5.93;4.10;;;10.50;99.90;;;;;;4988812;28;20451;-79
2022/01/02 00:13:25;;;;;;;9.43;5.33;;;10.60;99.90;;;;;;4988459;28;20419;-80
2022/01/02 00:15:56;;;;;;;9.70;5.17;;;10.60;99.90;;;;;;4978186;28;20423;-77
2022/01/02 00:18:27;;;;;;;11.10;5.90;;;10.60;99.90;;;;;;4987749;28;20415;-80
2022/01/02 00:20:55;;;;;;;10.40;4.83;;;10.60;99.90;;;;;;4986791;28;20514;-76
2022/01/02 00:23:30;;;;;;;9.33;5.00;;;10.70;99.90;;;;;;4985237;28;20411;-79
2022/01/02 00:26:03;;;;;;;8.37;5.30;;;10.70;99.90;;;;;;4980391;28;20501;-79
2022/01/02 00:28:29;;;;;;;5.30;4.07;;;10.70;99.90;;;;;;4980672;28;20499;-78
2022/01/02 00:30:55;;;;;;;9.53;5.60;;;10.70;99.90;;;;;;4976981;28;20471;-79
2022/01/02 00:33:20;;;;;;;7.17;4.23;;;10.70;99.90;;;;;;4980814;28;20179;-82
2022/01/02 00:35:49;;;;;;;8.67;4.63;;;10.70;99.90;;;;;;4981490;28;20754;-79
2022/01/02 00:38:22;;;;;;;8.73;5.10;;;10.70;99.90;;;;;;4981833;28;20633;-80
2022/01/02 00:40:54;;;;;;;11.90;4.73;;;10.70;99.90;;;;;;4981344;28;20806;-79
2022/01/02 00:43:33;;;;;;;8.07;5.20;;;10.70;99.90;;;;;;4976642;28;20451;-82
2022/01/02 00:46:03;;;;;;;7.90;3.57;;;10.70;99.90;;;;;;4973225;28;20494;-79
2022/01/02 00:48:31;;;;;;;9.33;5.60;;;10.70;99.90;;;;;;4979093;28;20455;-77
2022/01/02 00:51:04;;;;;;;5.67;4.40;;;10.80;99.70;;;;;;4980730;28;20547;-78
2022/01/02 00:53:42;;;;;;;10.27;5.27;;;10.80;99.60;;;;;;4982581;28;20755;-80
2022/01/02 00:56:10;;;;;;;7.03;4.20;;;10.80;99.50;;;;;;4983262;28;20436;-77
2022/01/02 00:58:56;;;;;;;7.13;4.53;;;10.80;99.30;;;;;;4972299;29;20428;-79
2022/01/02 01:01:32;;;;;;;10.97;5.57;;;10.80;99.30;;;;;;4960029;29;20523;-79
2022/01/02 01:03:59;;;;;;;8.90;4.37;;;10.80;99.10;;;;;;4961016;29;20435;-79
2022/01/02 01:06:30;;;;;;;6.87;4.47;;;10.80;99.10;;;;;;4968825;28;20439;-80
2022/01/02 01:08:56;;;;;;;7.23;4.33;;;10.70;99.10;;;;;;4982333;28;20408;-79
2022/01/02 01:11:40;;;;;;;9.00;4.10;;;10.80;99.00;;;;;;4983981;28;20443;-78
2022/01/02 01:14:06;;;;;;;8.40;4.43;;;10.70;98.90;;;;;;4984808;28;20418;-79
2022/01/02 01:16:32;;;;;;;10.50;4.23;;;10.70;98.90;;;;;;4981056;28;20459;-78
2022/01/02 01:18:58;;;;;;;6.23;4.67;;;10.70;98.90;;;;;;4981969;28;20161;-80
2022/01/02 01:21:24;;;;;;;7.97;4.80;;;10.70;99.00;;;;;;4980163;28;20191;-80
2022/01/02 01:23:51;;;;;;;6.30;4.80;;;10.80;99.00;;;;;;4980469;28;20435;-79
2022/01/02 01:26:17;;;;;;;5.27;4.07;;;10.80;99.00;;;;;;4985133;28;20460;-77
2022/01/02 01:28:43;;;;;;;7.67;4.60;;;10.80;98.90;;;;;;4971724;28;20176;-77
2022/01/02 01:31:09;;;;;;;8.13;4.70;;;10.80;98.80;;;;;;4981676;28;20439;-79
2022/01/02 01:33:37;;;;;;;8.87;4.33;;;10.80;98.70;;;;;;4978404;28;20236;-80
2022/01/02 01:36:03;;;;;;;9.63;3.97;;;10.80;98.60;;;;;;4979841;28;20447;-80
2022/01/02 01:38:31;;;;;;;5.07;4.20;;;10.80;98.50;;;;;;4979298;28;20207;-79
2022/01/02 01:41:35;;;;;;;8.70;4.40;;;10.80;98.40;;;;;;4979883;28;20439;-78
2022/01/02 01:46:40;;;;;;;8.87;4.70;;;10.90;98.40;;;;;;4984884;28;20419;-76
2022/01/02 01:49:21;;;;;;;5.60;3.90;;;10.90;98.30;;;;;;4987240;28;20428;-79
2022/01/02 01:51:47;;;;;;;9.30;4.73;;;10.90;98.20;;;;;;4992819;28;20527;-76
2022/01/02 01:54:15;;;;;;;5.70;3.83;;;10.90;98.20;;;;;;4986311;28;20416;-78
2022/01/02 01:56:41;;;;;;;7.37;4.40;;;10.90;98.20;;;;;;4981351;28;20438;-79
2022/01/02 01:59:07;;;;;;;9.70;4.83;;;10.90;98.10;;;;;;4978109;28;20412;-77
2022/01/02 02:01:34;;;;;;;9.20;4.60;;;10.90;98.10;;;;;;4961912;28;20412;-80
2022/01/02 02:04:00;;;;;;;6.57;4.10;;;10.90;98.10;;;;;;4978867;28;20408;-80
2022/01/02 02:06:27;;;;;;;6.77;5.03;;;10.90;98.00;;;;;;4977518;28;20490;-81
2022/01/02 02:08:59;;;;;;;8.73;5.20;;;10.90;98.00;;;;;;4977716;28;20442;-79
2022/01/02 02:11:27;;;;;;;6.10;4.47;;;10.90;98.00;;;;;;4985955;28;20494;-78
2022/01/02 02:13:55;;;;;;;7.03;4.83;;;10.80;98.00;;;;;;4961151;28;20427;-76
2022/01/02 02:16:20;;;;;;;7.13;4.60;;;10.80;98.10;;;;;;4957612;29;20421;-80
2022/01/02 02:18:46;;;;;;;9.73;5.20;;;10.80;98.20;;;;;;4958091;28;20424;-81
2022/01/02 02:21:13;;;;;;;9.40;4.97;;;10.80;98.30;;;;;;4963379;28;20419;-78
2022/01/02 02:23:39;;;;;;;6.67;4.00;;;10.80;98.20;;;;;;4976283;28;20482;-79
2022/01/02 02:26:05;;;;;;;7.10;4.50;;;10.80;98.20;;;;;;4976480;28;20805;-80
2022/01/02 02:28:31;;;;;;;7.07;4.40;;;10.80;98.10;;;;;;4975490;28;20412;-80
2022/01/02 02:30:59;;;;;;;7.27;4.50;;;10.80;98.10;;;;;;4996609;28;20256;-79
2022/01/02 02:33:25;;;;;;;7.10;4.40;;;10.80;98.10;;;;;;4977353;28;20424;-80
2022/01/02 02:35:52;;;;;;;8.83;4.30;;;10.80;98.10;;;;;;4980157;28;20478;-79
2022/01/02 02:38:19;;;;;;;6.43;4.33;;;10.80;98.10;;;;;;4977983;28;20204;-81
2022/01/02 02:40:49;;;;;;;9.10;5.30;;;10.80;98.10;;;;;;4979146;28;20438;-76
2022/01/02 02:43:31;;;;;;;6.10;4.37;;;10.80;98.10;;;;;;4979641;28;20420;-77
2022/01/02 02:52:02;;;;;;;12.87;4.20;;;10.80;98.10;;;;;;4976409;28;20797;-79
2022/01/02 02:54:32;;;;;;;5.97;4.30;;;10.80;98.10;;;;;;4978247;28;20770;-79
2022/01/02 02:57:00;;;;;;;8.47;5.27;;;10.80;98.00;;;;;;4979552;28;20420;-78
2022/01/02 02:59:33;;;;;;;12.53;5.27;;;10.80;98.10;;;;;;4978325;28;20814;-80
2022/01/02 03:01:59;;;;;;;6.87;5.03;;;10.80;98.10;;;;;;4977499;28;20443;-79
2022/01/02 03:04:26;;;;;;;7.50;4.70;;;10.70;98.00;;;;;;4977569;28;20478;-79
2022/01/02 03:06:53;;;;;;;9.83;4.70;;;10.70;98.00;;;;;;4977730;28;20451;-79
2022/01/02 03:09:40;;;;;;;7.03;4.33;;;10.70;98.00;;;;;;4977678;28;20451;-80
2022/01/02 03:12:10;;;;;;;9.73;5.73;;;10.70;98.00;;;;;;4977536;28;20483;-79
2022/01/02 03:14:39;;;;;;;10.87;4.57;;;10.70;98.00;;;;;;4977931;28;20832;-80
2022/01/02 03:17:06;;;;;;;7.83;5.17;;;10.70;98.00;;;;;;4977866;28;20941;-79
2022/01/02 03:19:34;;;;;;;6.73;4.40;;;10.60;98.00;;;;;;4977806;28;20459;-80
2022/01/02 03:22:00;;;;;;;16.70;5.10;;;10.60;98.00;;;;;;4976743;28;20435;-79
2022/01/02 03:24:26;;;;;;;8.10;4.73;;;10.60;98.10;;;;;;4992995;28;20553;-80
2022/01/02 03:26:52;;;;;;;7.37;4.10;;;10.60;98.00;;;;;;4980187;28;20414;-80
2022/01/02 03:29:18;;;;;;;6.87;4.33;;;10.60;98.00;;;;;;4976574;28;20487;-80
2022/01/02 03:31:44;;;;;;;5.70;4.27;;;10.60;98.40;;;;;;4968571;28;20846;-81
2022/01/02 03:34:10;;;;;;;7.77;4.30;;;10.60;98.00;;;;;;4966830;28;20183;-79
2022/01/02 03:36:37;;;;;;;8.73;5.40;;;10.60;97.90;;;;;;4976826;28;20171;-79
2022/01/02 03:39:03;;;;;;;8.43;4.50;;;10.60;97.90;;;;;;4977069;28;20412;-81
2022/01/02 03:41:29;;;;;;;6.30;4.60;;;10.60;97.90;;;;;;4982032;28;20427;-81
2022/01/02 03:43:55;;;;;;;7.00;5.13;;;10.60;98.00;;;;;;4981904;28;20426;-80
2022/01/02 03:46:22;;;;;;;7.67;5.17;;;10.60;98.00;;;;;;4980703;28;20506;-81
2022/01/02 03:48:51;;;;;;;6.03;4.63;;;10.60;98.00;;;;;;4982516;28;20557;-80
2022/01/02 03:51:17;;;;;;;6.60;4.70;;;10.60;98.00;;;;;;4983721;28;20474;-77
2022/01/02 03:53:43;;;;;;;5.63;4.30;;;10.60;98.00;;;;;;4983034;28;20419;-81
2022/01/02 03:56:08;;;;;;;6.43;4.80;;;10.60;98.00;;;;;;4984384;28;20173;-79
2022/01/02 03:58:34;;;;;;;10.00;4.97;;;10.60;98.00;;;;;;4966280;28;20443;-81
2022/01/02 04:01:00;;;;;;;9.53;4.90;;;10.70;98.10;;;;;;4982390;28;20196;-78
2022/01/02 04:03:26;;;;;;;6.60;4.37;;;10.70;98.10;;;;;;4984050;28;20187;-78
2022/01/02 04:05:51;;;;;;;10.20;5.20;;;10.70;98.00;;;;;;4971682;28;20200;-79
2022/01/02 04:08:17;;;;;;;6.80;4.93;;;10.70;98.00;;;;;;4988499;28;20172;-78
2022/01/02 04:10:44;;;;;;;11.40;5.20;;;10.60;98.00;;;;;;5001803;28;20259;-80
2022/01/02 04:13:09;;;;;;;7.23;5.00;;;10.60;98.10;;;;;;4984326;28;20450;-80
2022/01/02 04:15:35;;;;;;;6.97;4.77;;;10.60;98.10;;;;;;4982373;28;20176;-77
2022/01/02 04:18:01;;;;;;;7.70;5.17;;;10.60;98.20;;;;;;4997942;28;20738;-79
2022/01/02 04:20:27;;;;;;;11.10;5.50;;;10.60;98.30;;;;;;4982299;28;20196;-81
2022/01/02 04:22:52;;;;;;;7.63;4.73;;;10.60;98.30;;;;;;4998190;28;20173;-82
2022/01/02 04:25:19;;;;;;;4.90;3.90;;;10.60;98.40;;;;;;4981649;28;20200;-80
2022/01/02 04:27:45;;;;;;;8.90;5.80;;;10.60;98.50;;;;;;4984382;28;20410;-81
2022/01/02 04:30:12;;;;;;;8.17;5.70;;;10.60;98.50;;;;;;4982804;28;20435;-81
2022/01/02 04:32:40;;;;;;;9.87;5.70;;;10.60;98.50;;;;;;4983568;28;20491;-78
2022/01/02 04:35:07;;;;;;;6.63;4.57;;;10.60;98.50;;;;;;4982312;28;20432;-81
2022/01/02 04:37:33;;;;;;;6.90;4.43;;;10.60;98.50;;;;;;4981494;28;20495;-78
2022/01/02 04:39:59;;;;;;;11.23;5.57;;;10.60;98.50;;;;;;4966074;28;20482;-79
2022/01/02 04:42:25;;;;;;;8.97;4.80;;;10.60;98.60;;;;;;4983732;28;20187;-78
2022/01/02 04:44:50;;;;;;;6.50;4.50;;;10.60;98.60;;;;;;5000817;28;20447;-79
2022/01/02 04:47:16;;;;;;;11.37;4.83;;;10.70;98.70;;;;;;4986879;28;20175;-79
2022/01/02 04:49:42;;;;;;;7.07;4.40;;;10.70;98.70;;;;;;4972016;28;20181;-78
2022/01/02 04:52:09;;;;;;;10.60;5.13;;;10.70;98.70;;;;;;4965407;28;20407;-80
2022/01/02 04:54:35;;;;;;;9.23;5.53;;;10.70;98.70;;;;;;4961691;29;20439;-79
2022/01/02 04:57:01;;;;;;;6.83;5.07;;;10.70;98.90;;;;;;4957198;28;20432;-79
2022/01/02 04:59:27;;;;;;;6.77;4.97;;;10.60;98.90;;;;;;4980949;28;20447;-79
2022/01/02 05:01:56;;;;;;;8.20;4.90;;;10.60;99.00;;;;;;4990442;28;20271;-81
2022/01/02 05:04:22;;;;;;;6.63;4.93;;;10.60;99.00;;;;;;4981688;28;20206;-79
2022/01/02 05:06:48;;;;;;;5.90;4.60;;;10.60;99.30;;;;;;4984205;28;20467;-79
2022/01/02 05:09:15;;;;;;;7.07;4.43;;;10.60;99.40;;;;;;4968180;28;20476;-80
2022/01/02 05:11:42;;;;;;;8.10;4.53;;;10.60;99.50;;;;;;4964656;29;20473;-80
2022/01/02 05:14:08;;;;;;;11.67;5.30;;;10.60;99.50;;;;;;4963917;29;20932;-77
2022/01/02 05:16:33;;;;;;;10.23;5.90;;;10.60;99.60;;;;;;4963618;28;20491;-79
2022/01/02 05:18:59;;;;;;;8.90;5.40;;;10.50;99.70;;;;;;4978058;28;20186;-80
2022/01/02 05:21:25;;;;;;;7.23;4.70;;;10.50;99.70;;;;;;4984797;28;20173;-80
2022/01/02 05:23:51;;;;;;;7.57;5.37;;;10.50;99.80;;;;;;4981801;28;20408;-78
2022/01/02 05:26:17;;;;;;;12.27;5.37;;;10.50;99.80;;;;;;4983229;28;20459;-81
2022/01/02 05:28:44;;;;;;;6.83;5.10;;;10.50;99.90;;;;;;4970653;28;20475;-81
2022/01/02 05:31:10;;;;;;;8.13;4.87;;;10.50;99.90;;;;;;4964315;28;20484;-79
2022/01/02 05:33:36;;;;;;;7.77;5.00;;;10.50;99.90;;;;;;4963994;28;20177;-79
2022/01/02 05:36:02;;;;;;;6.83;4.93;;;10.50;99.90;;;;;;4963179;28;20173;-78
2022/01/02 05:38:29;;;;;;;9.03;5.47;;;10.50;99.90;;;;;;4976387;28;20436;-79
2022/01/02 05:40:57;;;;;;;9.30;5.10;;;10.50;99.90;;;;;;4968936;28;20452;-78
2022/01/02 05:43:24;;;;;;;8.83;5.60;;;10.50;99.90;;;;;;4985269;28;20415;-78
2022/01/02 05:45:50;;;;;;;5.70;4.50;;;10.60;99.90;;;;;;4986133;28;20460;-79
2022/01/02 05:48:16;;;;;;;8.90;4.90;;;10.50;99.90;;;;;;4980529;28;20448;-79
2022/01/02 05:50:41;;;;;;;13.43;5.80;;;10.50;99.90;;;;;;4963837;28;20437;-79
2022/01/02 05:53:07;;;;;;;7.90;4.60;;;10.50;99.90;;;;;;4962230;28;20238;-79
2022/01/02 05:55:33;;;;;;;7.33;5.13;;;10.50;99.90;;;;;;4963603;28;20207;-79
2022/01/02 05:57:59;;;;;;;8.60;4.73;;;10.50;99.90;;;;;;4963713;28;20712;-82
2022/01/02 06:00:26;;;;;;;8.30;5.37;;;10.50;99.90;;;;;;4966327;28;20432;-78
2022/01/02 06:02:57;;;;;;;10.80;5.30;;;10.50;99.90;;;;;;4982777;28;20961;-81
2022/01/02 06:05:23;;;;;;;8.43;5.50;;;10.50;99.90;;;;;;4981371;28;20475;-79
2022/01/02 06:07:50;;;;;;;6.13;4.43;;;10.50;99.90;;;;;;4980946;28;20464;-80
2022/01/02 06:10:16;;;;;;;9.60;5.50;;;10.50;99.90;;;;;;4978668;28;20444;-80
2022/01/02 06:12:42;;;;;;;6.50;4.43;;;10.50;99.90;;;;;;4977305;28;20420;-78
2022/01/02 06:15:08;;;;;;;9.33;5.40;;;10.50;99.90;;;;;;4960849;28;20434;-79
2022/01/02 06:17:34;;;;;;;9.33;5.33;;;10.50;99.90;;;;;;4960705;28;20423;-79
2022/01/02 06:20:01;;;;;;;9.77;4.23;;;10.50;99.90;;;;;;4993269;28;20435;-81
2022/01/02 06:22:26;;;;;;;6.00;4.50;;;10.50;99.90;;;;;;4988995;28;20427;-78
2022/01/02 06:24:52;;;;;;;7.50;4.40;;;10.50;99.90;;;;;;4990976;28;20483;-81
2022/01/02 06:27:19;;;;;;;8.10;5.57;;;10.50;99.90;;;;;;4977311;28;20407;-79
2022/01/02 06:29:47;;;;;;;6.33;5.60;;;10.50;99.90;;;;;;4976856;28;20468;-82
2022/01/02 06:32:14;;;;;;;6.03;4.47;;;10.60;99.90;;;;;;4977783;28;20419;-81
2022/01/02 06:34:40;;;;;;;5.90;4.50;;;10.60;99.90;;;;;;4978672;28;20419;-80
2022/01/02 06:37:06;;;;;;;6.00;4.50;;;10.60;99.90;;;;;;4978326;28;20446;-78
2022/01/02 06:39:31;;;;;;;12.73;5.57;;;10.60;99.90;;;;;;4980754;28;20196;-79
2022/01/02 06:41:57;;;;;;;11.03;5.20;;;10.60;99.90;;;;;;4974395;28;20173;-78
2022/01/02 06:44:23;;;;;;;7.50;4.80;;;10.60;99.90;;;;;;4964367;28;20283;-78
2022/01/02 06:46:49;;;;;;;10.03;5.80;;;10.50;99.90;;;;;;4961540;28;20176;-78
2022/01/02 06:49:15;;;;;;;8.23;4.77;;;10.50;99.90;;;;;;4966044;28;20986;-77
2022/01/02 06:51:41;;;;;;;7.63;4.13;;;10.50;99.90;;;;;;4966258;28;20486;-76
2022/01/02 06:54:06;;;;;;;10.13;5.70;;;10.50;99.90;;;;;;4991439;28;20260;-79
2022/01/02 06:56:33;;;;;;;7.13;5.00;;;10.50;99.90;;;;;;4967080;28;20187;-78
2022/01/02 06:58:59;;;;;;;13.37;5.10;;;10.50;99.90;;;;;;4983513;28;20411;-79
2022/01/02 07:01:25;;;;;;;9.03;4.90;;;10.50;99.90;;;;;;4967513;28;20988;-78
2022/01/02 07:03:50;;;;;;;5.80;4.50;;;10.50;99.90;;;;;;4980893;28;20431;-80
2022/01/02 07:06:16;;;;;;;10.60;5.00;;;10.50;99.80;;;;;;4980368;28;20208;-81
2022/01/02 07:08:42;;;;;;;7.80;4.33;;;10.50;99.70;;;;;;4976518;28;20179;-79
2022/01/02 07:11:10;;;;;;;7.00;4.90;;;10.50;99.60;;;;;;4992567;28;20247;-80
2022/01/02 07:13:36;;;;;;;6.47;4.20;;;10.50;99.50;;;;;;4978010;28;20207;-80
2022/01/02 07:16:01;;;;;;;8.57;4.90;;;10.50;99.40;;;;;;4991375;28;20456;-81
2022/01/02 07:18:27;;;;;;;8.03;4.63;;;10.60;99.40;;;;;;4977768;28;20161;-77
2022/01/02 07:20:53;;;;;;;8.03;4.50;;;10.60;99.30;;;;;;4974922;28;20188;-82
2022/01/02 07:23:18;;;;;;;6.20;3.73;;;10.60;99.20;;;;;;4993784;28;20173;-81
2022/01/02 07:25:44;;;;;;;9.03;4.27;;;10.60;99.10;;;;;;4992204;28;20287;-79
2022/01/02 07:28:11;;;;;;;7.63;4.30;;;10.60;98.90;;;;;;4976588;28;20177;-81
2022/01/02 07:30:36;;;;;;;6.07;4.53;;;10.60;98.70;;;;;;4980949;28;20534;-78
2022/01/02 07:33:05;;;;;;;5.73;3.53;;;10.60;98.70;;;;;;4979524;28;20420;-79
2022/01/02 07:35:31;;;;;;;6.53;3.93;;;10.60;98.60;;;;;;4978711;28;20172;-79
2022/01/02 07:37:57;;;;;;;9.90;4.30;;;10.60;98.50;;;;;;4980271;28;20531;-81
2022/01/02 07:40:24;;;;;;;7.83;3.83;;;10.60;98.50;;;;;;4967647;28;20448;-81
2022/01/02 07:42:52;;;;;;;6.93;4.80;;;10.60;98.50;;;;;;4975397;28;20435;-78
2022/01/02 07:45:24;;;;;;;6.00;4.87;;;10.60;98.40;;;;;;4974613;28;20472;-78
2022/01/02 07:47:50;;;;;;;6.10;3.63;;;10.60;98.30;;;;;;4975281;28;20427;-78
2022/01/02 07:50:18;;;;;;;9.27;5.00;;;10.60;98.10;;;;;;4973224;28;20460;-82
2022/01/02 07:52:44;;;;;;;6.97;5.17;;;10.70;98.00;;;;;;4957651;29;20240;-81
2022/01/02 07:55:10;;;;;;;8.70;4.53;;;10.60;98.00;;;;;;4959119;28;20412;-81
2022/01/02 07:57:36;;;;;;;9.00;4.70;;;10.60;97.80;;;;;;4958488;28;20240;-81
2022/01/02 08:00:04;;;;;;;8.33;4.30;;;10.70;97.80;;;;;;4976306;28;20268;-79
2022/01/02 08:02:37;;;;;;;9.43;4.73;;;10.70;97.80;;;;;;4992138;28;20944;-80
2022/01/02 08:05:06;;;;;;;6.80;4.27;;;10.70;97.80;;;;;;4973622;28;20469;-80
2022/01/02 08:07:38;;;;;;;8.90;4.03;;;10.70;97.70;;;;;;4973757;28;20293;-79
2022/01/02 08:10:04;;;;;;;7.70;4.80;;;10.60;97.60;;;;;;4961320;28;20477;-81
2022/01/02 08:12:32;;;;;;;6.17;4.00;;;10.70;97.60;;;;;;5002756;28;20781;-80
2022/01/02 08:14:59;;;;;;;7.00;4.33;;;10.70;97.40;;;;;;4991305;28;20478;-80
2022/01/02 08:17:27;;;;;;;6.70;3.90;;;10.70;97.40;;;;;;4992643;28;20427;-78
2022/01/02 08:19:53;;;;;;;7.30;3.97;;;10.70;97.40;;;;;;4991272;28;20451;-80
2022/01/02 08:22:22;;;;;;;8.10;4.40;;;10.70;97.30;;;;;;4982553;28;20447;-81
2022/01/02 08:24:48;;;;;;;6.00;3.50;;;10.70;97.00;;;;;;4975466;28;20232;-79
2022/01/02 08:27:14;;;;;;;13.93;4.53;;;10.70;96.80;;;;;;4994456;28;20438;-82
2022/01/02 08:29:40;;;;;;;7.60;3.87;;;10.70;96.80;;;;;;4983155;28;20294;-82
2022/01/02 08:32:05;;;;;;;5.43;3.87;;;10.70;96.90;;;;;;4967850;28;20176;-78
2022/01/02 08:34:31;;;;;;;7.70;4.17;;;10.80;96.70;;;;;;4992245;28;20169;-79
2022/01/02 08:36:57;;;;;;;4.80;3.93;;;10.80;96.70;;;;;;4984282;28;20173;-78
2022/01/02 08:39:22;;;;;;;6.10;3.50;;;10.80;96.40;;;;;;4992890;28;20279;-79
2022/01/02 08:41:48;;;;;;;5.60;3.33;;;10.80;95.90;;;;;;4994106;28;20173;-82
2022/01/02 08:44:14;;;;;;;5.70;3.33;;;10.80;95.90;;;;;;4982378;28;20199;-81
2022/01/02 08:46:40;;;;;;;8.07;4.10;;;10.80;95.40;;;;;;4967345;28;20739;-82
2022/01/02 08:49:05;;;;;;;5.63;4.20;;;10.90;95.40;;;;;;4979107;28;20180;-80
2022/01/02 08:51:31;;;;;;;5.53;4.07;;;10.90;95.00;;;;;;4983599;28;20179;-80
2022/01/02 08:53:57;;;;;;;4.60;3.20;;;10.90;94.60;;;;;;4969422;28;20172;-79
2022/01/02 08:56:25;;;;;;;5.30;3.33;;;10.90;94.40;;;;;;4984303;28;20187;-83
2022/01/02 08:58:51;;;;;;;5.50;3.20;;;11.00;94.30;;;;;;4980285;28;20255;-82
2022/01/02 09:01:16;;;;;;;7.03;4.03;;;11.00;94.60;;;;;;4980126;28;20419;-80
2022/01/02 09:03:42;;;;;;;5.60;3.20;;;11.00;94.30;;;;;;4980894;28;20175;-79
2022/01/02 09:06:08;;;;;;;6.23;2.83;;;11.00;94.30;;;;;;4981402;28;20200;-80
2022/01/02 09:08:34;;;;;;;5.20;3.13;;;11.00;94.30;;;;;;4979685;28;20189;-79
2022/01/02 09:10:59;;;;;;;5.30;3.47;;;11.00;94.40;;;;;;4979704;28;20235;-81
2022/01/02 09:13:26;;;;;;;5.23;3.53;;;11.10;94.30;;;;;;4982028;28;20240;-80
2022/01/02 09:15:52;;;;;;;6.93;3.60;;;11.10;94.20;;;;;;4982892;28;20237;-81
2022/01/02 09:18:18;;;;;;;5.37;3.00;;;11.10;94.20;;;;;;4979630;28;20474;-81
2022/01/02 09:20:44;;;;;;;6.07;3.73;;;11.10;94.20;;;;;;4982465;28;20448;-81
2022/01/02 09:23:10;;;;;;;5.60;3.57;;;11.10;94.30;;;;;;4985534;28;20172;-80
2022/01/02 09:25:36;;;;;;;4.13;2.83;;;11.10;94.40;;;;;;4989113;28;20219;-80
2022/01/02 09:28:02;;;;;;;5.70;3.20;;;11.10;94.30;;;;;;4990068;28;20412;-78
2022/01/02 09:30:27;;;;;;;4.03;3.20;;;11.10;94.10;;;;;;4989239;28;20204;-78
2022/01/02 09:32:55;;;;;;;4.20;3.17;;;11.10;93.80;;;;;;5002705;28;20638;-78
2022/01/02 09:35:20;;;;;;;6.33;3.00;;;11.10;93.80;;;;;;4989279;28;20180;-79
2022/01/02 09:37:46;;;;;;;7.10;2.93;;;11.20;93.60;;;;;;4991586;28;20440;-79
2022/01/02 09:40:12;;;;;;;3.83;2.83;;;11.20;93.00;;;;;;4990949;28;20219;-79
2022/01/02 09:42:39;;;;;;;7.00;3.50;;;11.20;93.20;;;;;;4974522;28;20184;-78
2022/01/02 09:45:06;;;;;;;8.13;2.97;;;11.20;93.20;;;;;;4987969;28;20208;-79
2022/01/02 09:47:33;;;;;;;6.70;3.10;;;11.20;93.00;;;;;;4988690;28;20423;-79
2022/01/02 09:50:07;;;;;;;4.50;2.80;;;11.20;93.10;;;;;;4989722;28;20832;-77
2022/01/02 09:52:34;;;;;;;4.90;3.17;;;11.30;93.00;;;;;;4995268;28;20913;-78
2022/01/02 09:55:00;;;;;;;6.37;3.40;;;11.30;92.80;;;;;;4981968;28;20451;-78
2022/01/02 09:57:26;;;;;;;3.67;2.50;;;11.40;92.40;;;;;;4979386;28;20997;-79
2022/01/02 09:59:53;;;;;;;3.03;2.53;;;11.40;92.10;;;;;;4983738;28;20853;-77
2022/01/02 10:02:19;;;;;;;6.80;3.00;;;11.50;92.10;;;;;;4982369;28;20436;-79
2022/01/02 10:04:45;;;;;;;5.70;4.50;;;11.50;91.70;;;;;;5000580;28;20463;-78
2022/01/02 10:07:29;;;;;;;4.23;2.70;;;11.60;92.00;;;;;;4986708;28;20802;-79
2022/01/02 10:09:55;;;;;;;4.33;2.80;;;11.70;91.90;;;;;;4969095;28;20196;-79
2022/01/02 10:12:32;;;;;;;4.03;3.33;;;11.80;91.80;;;;;;4969825;28;20520;-79
2022/01/02 10:15:21;;;;;;;5.03;2.90;;;11.90;91.20;;;;;;4983995;28;20809;-79
2022/01/02 10:18:03;;;;;;;3.83;3.20;;;12.00;90.50;;;;;;4984770;28;20531;-76
2022/01/02 10:20:31;;;;;;;5.57;3.13;;;12.00;90.70;;;;;;4975111;28;20431;-74
2022/01/02 10:22:59;;;;;;;4.10;2.90;;;12.00;91.00;;;;;;4973577;28;20433;-75
2022/01/02 10:25:40;;;;;;;5.60;2.73;;;12.00;90.90;;;;;;4974429;28;20471;-73
2022/01/02 10:28:26;;;;;;;5.07;3.47;;;11.90;90.80;;;;;;4990328;28;20415;-75
2022/01/02 10:31:04;;;;;;;6.23;3.10;;;11.90;90.60;;;;;;4974251;28;20456;-74
2022/01/02 10:33:46;;;;;;;3.37;2.97;;;11.90;90.90;;;;;;4973793;28;20431;-74
2022/01/02 10:36:12;;;;;;;4.43;3.20;;;12.00;90.90;;;;;;4975037;28;20506;-75
2022/01/02 10:38:38;;;;;;;4.63;2.80;;;12.10;91.20;;;;;;4975451;28;20424;-74
2022/01/02 10:41:04;;;;;;;5.67;3.23;;;12.10;91.10;;;;;;4974515;28;20454;-74
2022/01/02 10:43:33;;;;;;;8.00;4.53;;;12.20;91.30;;;;;;4989597;28;20235;-73
2022/01/02 10:46:03;;;;;;;8.47;3.83;;;12.30;91.80;;;;;;4989475;28;20205;-75
2022/01/02 10:48:41;;;;;;;6.60;4.20;;;12.50;91.70;;;;;;4975260;28;21004;-76
2022/01/02 10:51:20;;;;;;;9.10;3.90;;;12.70;91.20;;;;;;4975908;28;20447;-74
2022/01/02 10:53:56;;;;;;;5.13;3.50;;;12.90;91.00;;;;;;4979135;28;20804;-73
2022/01/02 10:56:24;;;;;;;5.30;3.43;;;13.10;90.60;;;;;;4972218;28;20423;-75
2022/01/02 10:58:50;;;;;;;4.03;2.97;;;13.10;88.80;;;;;;4971367;28;20516;-74
2022/01/02 11:01:16;;;;;;;4.90;3.43;;;13.20;87.60;;;;;;4973865;28;20421;-75
2022/01/02 11:03:45;;;;;;;4.90;2.87;;;13.30;87.30;;;;;;4973759;28;20462;-75
2022/01/02 11:06:13;;;;;;;6.50;3.43;;;13.40;86.60;;;;;;4971526;28;20464;-75
2022/01/02 11:08:45;;;;;;;4.53;2.60;;;13.40;86.50;;;;;;4990448;28;20523;-75
2022/01/02 11:11:10;;;;;;;6.17;3.40;;;13.40;86.60;;;;;;4984470;28;20453;-74
2022/01/02 11:13:36;;;;;;;5.63;2.80;;;13.50;86.70;;;;;;4990071;28;20481;-75
2022/01/02 11:16:05;;;;;;;3.40;2.53;;;13.60;86.60;;;;;;4961449;28;20181;-75
2022/01/02 11:18:35;;;;;;;6.80;2.47;;;13.80;86.40;;;;;;4974655;28;20180;-75
2022/01/02 11:21:02;;;;;;;5.43;2.57;;;14.00;85.00;;;;;;4973958;28;20475;-73
2022/01/02 11:23:40;;;;;;;6.50;2.30;;;14.10;84.40;;;;;;4972179;28;20428;-74
2022/01/02 11:26:34;;;;;;;6.07;4.20;;;14.10;83.60;;;;;;4972064;28;20494;-75
2022/01/02 11:29:00;;;;;;;4.40;2.70;;;14.10;83.60;;;;;;4975930;28;20461;-75
2022/01/02 11:31:30;;;;;;;5.90;2.63;;;14.10;83.10;;;;;;4978664;28;20434;-75
2022/01/02 11:33:57;;;;;;;4.13;2.53;;;14.20;82.70;;;;;;4977711;28;20821;-76
2022/01/02 11:36:25;;;;;;;4.90;3.13;;;14.20;83.10;;;;;;4979466;28;20429;-74
2022/01/02 11:39:06;;;;;;;7.07;3.37;;;14.10;83.10;;;;;;4981332;28;20437;-74
2022/01/02 11:41:42;;;;;;;6.43;3.10;;;14.20;83.60;;;;;;5000449;23;20491;-79
2022/01/02 11:44:22;;;;;;;3.13;2.33;;;14.10;83.30;;;;;;4999694;28;20413;-80
2022/01/02 11:46:53;;;;;;;5.73;3.10;;;14.20;83.60;;;;;;4977762;28;20454;-80
2022/01/02 11:49:38;;;;;;;4.47;3.00;;;14.20;83.20;;;;;;4978627;28;20834;-79
2022/01/02 11:52:22;;;;;;;6.87;3.23;;;14.20;83.00;;;;;;4982594;28;20461;-79
2022/01/02 11:54:50;;;;;;;4.17;3.00;;;14.20;82.30;;;;;;4978261;28;20405;-79
2022/01/02 11:57:18;;;;;;;7.60;2.77;;;14.10;82.00;;;;;;4979262;28;20931;-80
2022/01/02 11:59:46;;;;;;;6.27;3.43;;;14.00;82.10;;;;;;4978658;28;20415;-79
2022/01/02 12:02:18;;;;;;;5.20;2.63;;;14.00;82.40;;;;;;4981835;28;20778;-79
2022/01/02 12:05:14;;;;;;;5.87;2.30;;;13.90;81.80;;;;;;4981463;28;20484;-79
2022/01/02 12:07:50;;;;;;;5.23;3.57;;;13.90;82.40;;;;;;4979666;28;20428;-79
2022/01/02 12:12:59;;;;;;;5.47;3.50;;;13.70;82.80;;;;;;4988073;28;20755;-80
2022/01/02 12:15:31;;;;;;;6.83;4.43;;;13.70;83.00;;;;;;4989965;28;20180;-79
2022/01/02 12:18:11;;;;;;;5.00;2.70;;;13.70;83.00;;;;;;4992280;28;20478;-80
2022/01/02 12:21:06;;;;;;;7.37;3.10;;;13.70;82.90;;;;;;4996393;28;20510;-82
2022/01/02 12:23:35;;;;;;;7.90;2.33;;;13.60;83.00;;;;;;4993851;28;20436;-80
2022/01/02 12:26:12;;;;;;;12.83;3.40;;;13.60;83.10;;;;;;4996403;28;20475;-79
2022/01/02 12:29:06;;;;;;;4.47;2.87;;;13.60;83.20;;;;;;4989333;28;20431;-79
2022/01/02 12:31:34;;;;;;;6.10;2.60;;;13.60;83.50;;;;;;4978497;28;20487;-80
2022/01/02 12:34:09;;;;;;;4.03;2.40;;;13.60;83.40;;;;;;4988402;28;20426;-80
2022/01/02 12:36:36;;;;;;;6.77;3.60;;;13.50;83.30;;;;;;4984643;28;20422;-79
2022/01/02 12:39:05;;;;;;;8.83;2.93;;;13.50;83.40;;;;;;4984486;28;20432;-78
2022/01/02 12:41:34;;;;;;;4.03;2.53;;;13.50;83.70;;;;;;4990900;28;20463;-80
2022/01/02 12:44:05;;;;;;;5.33;3.73;;;13.50;83.70;;;;;;4986404;28;20412;-79
2022/01/02 12:46:51;;;;;;;5.20;2.70;;;13.50;83.60;;;;;;4986466;28;20456;-81
2022/01/02 12:49:20;;;;;;;6.40;3.27;;;13.50;83.50;;;;;;4989406;28;20426;-80
2022/01/02 12:51:51;;;;;;;5.97;3.00;;;13.50;83.30;;;;;;4979594;28;20806;-80
2022/01/02 12:54:28;;;;;;;6.00;2.80;;;13.60;83.50;;;;;;4980243;28;20459;-78
2022/01/02 12:56:55;;;;;;;5.80;2.23;;;13.60;83.10;;;;;;4982631;28;20420;-79
2022/01/02 12:59:25;;;;;;;4.63;2.27;;;13.60;83.00;;;;;;4979701;28;20420;-79
2022/01/02 13:01:56;;;;;;;4.13;2.60;;;13.60;82.90;;;;;;4983357;28;20438;-80
2022/01/02 13:04:23;;;;;;;8.80;2.50;;;13.60;83.00;;;;;;4982388;28;20431;-80